Huntley, Montana
Current Conditions -  °F | °C
As of 5:53 PM on Tuesday 21 Oct 2014 (Local Time) from KBIL Reporting Station
Broken Clouds Broken Clouds  
Wind Chill: 66°   Ceiling: 23000
Heat Index: 66°   Visibility: 10mi
Dew Point: 25°   Wind: 25mph
Humidity: 21%   Direction: 280°W
Pressure: 29.72"   Gusts: 29mph
Location:  45.9°N, 108.3°W
Report Text: KBIL 212353Z 28022G25KT 10SM SCT120 BKN230 19/M04 A2972 RMK AO2 SLP049 T01891039 10233 20178 53019
Loading
Personal Weather Stations






























Interactive Weather Map
Tropical Storm Tracking
New forecast layout! Learn more

10-Day Weather Forecast

Advertisements
Track Severe Weather on mobile